sensor_id;sensor_type;location;lat;lon;timestamp;temperature;humidity
59098;DHT22;44883;52.760;6.610;2022-09-17T00:01:07;11.00;99.90
59098;DHT22;44883;52.760;6.610;2022-09-17T00:03:34;10.90;99.90
59098;DHT22;44883;52.760;6.610;2022-09-17T00:06:05;10.90;99.90
59098;DHT22;44883;52.760;6.610;2022-09-17T00:08:32;10.80;99.90
59098;DHT22;44883;52.760;6.610;2022-09-17T00:11:14;10.80;99.90
59098;DHT22;44883;52.760;6.610;2022-09-17T00:13:41;10.80;99.90
59098;DHT22;44883;52.760;6.610;2022-09-17T00:16:08;10.80;99.90
59098;DHT22;44883;52.760;6.610;2022-09-17T00:18:34;10.70;99.90
59098;DHT22;44883;52.760;6.610;2022-09-17T00:21:01;10.60;99.90
59098;DHT22;44883;52.760;6.610;2022-09-17T00:23:28;10.60;99.90
59098;DHT22;44883;52.760;6.610;2022-09-17T00:25:53;10.60;99.90
59098;DHT22;44883;52.760;6.610;2022-09-17T00:28:19;10.50;99.90
59098;DHT22;44883;52.760;6.610;2022-09-17T00:30:45;10.50;99.90
59098;DHT22;44883;52.760;6.610;2022-09-17T00:33:13;10.50;99.90
59098;DHT22;44883;52.760;6.610;2022-09-17T00:35:38;10.50;99.90
59098;DHT22;44883;52.760;6.610;2022-09-17T00:38:04;10.50;99.90
59098;DHT22;44883;52.760;6.610;2022-09-17T00:40:30;10.50;99.90
59098;DHT22;44883;52.760;6.610;2022-09-17T00:42:55;10.50;99.90
59098;DHT22;44883;52.760;6.610;2022-09-17T00:45:21;10.60;99.90
59098;DHT22;44883;52.760;6.610;2022-09-17T00:47:59;10.70;99.90
59098;DHT22;44883;52.760;6.610;2022-09-17T00:50:40;10.70;99.90
59098;DHT22;44883;52.760;6.610;2022-09-17T00:53:13;10.70;99.90
59098;DHT22;44883;52.760;6.610;2022-09-17T00:55:42;10.60;99.90
59098;DHT22;44883;52.760;6.610;2022-09-17T00:58:11;10.70;99.90
59098;DHT22;44883;52.760;6.610;2022-09-17T01:00:37;10.60;99.90
59098;DHT22;44883;52.760;6.610;2022-09-17T01:03:03;10.60;99.90
59098;DHT22;44883;52.760;6.610;2022-09-17T01:05:40;10.50;99.90
59098;DHT22;44883;52.760;6.610;2022-09-17T01:08:25;10.50;99.90
59098;DHT22;44883;52.760;6.610;2022-09-17T01:14:10;10.40;99.90
59098;DHT22;44883;52.760;6.610;2022-09-17T01:19:40;10.40;99.90
59098;DHT22;44883;52.760;6.610;2022-09-17T01:22:20;10.40;99.90
59098;DHT22;44883;52.760;6.610;2022-09-17T01:31:00;10.30;99.90
59098;DHT22;44883;52.760;6.610;2022-09-17T01:36:18;10.20;99.90
59098;DHT22;44883;52.760;6.610;2022-09-17T01:39:02;10.30;99.90
59098;DHT22;44883;52.760;6.610;2022-09-17T01:42:06;10.20;99.90
59098;DHT22;44883;52.760;6.610;2022-09-17T01:47:12;10.20;99.90
59098;DHT22;44883;52.760;6.610;2022-09-17T01:49:40;10.20;99.90
59098;DHT22;44883;52.760;6.610;2022-09-17T01:52:08;10.30;99.90
59098;DHT22;44883;52.760;6.610;2022-09-17T01:54:37;10.30;99.90
59098;DHT22;44883;52.760;6.610;2022-09-17T01:57:09;10.30;99.90
59098;DHT22;44883;52.760;6.610;2022-09-17T01:59:54;10.30;99.90
59098;DHT22;44883;52.760;6.610;2022-09-17T02:02:35;10.30;99.90
59098;DHT22;44883;52.760;6.610;2022-09-17T02:05:22;10.30;99.90
59098;DHT22;44883;52.760;6.610;2022-09-17T02:08:13;10.40;99.90
59098;DHT22;44883;52.760;6.610;2022-09-17T02:10:46;10.30;99.90
59098;DHT22;44883;52.760;6.610;2022-09-17T02:13:20;10.30;99.90
59098;DHT22;44883;52.760;6.610;2022-09-17T02:15:50;10.40;99.90
59098;DHT22;44883;52.760;6.610;2022-09-17T02:24:22;10.40;99.90
59098;DHT22;44883;52.760;6.610;2022-09-17T02:29:30;10.30;99.90
59098;DHT22;44883;52.760;6.610;2022-09-17T02:31:56;10.40;99.90
59098;DHT22;44883;52.760;6.610;2022-09-17T02:34:23;10.30;99.90
59098;DHT22;44883;52.760;6.610;2022-09-17T02:36:50;10.40;99.90
59098;DHT22;44883;52.760;6.610;2022-09-17T02:39:15;10.30;99.90
59098;DHT22;44883;52.760;6.610;2022-09-17T02:41:51;10.30;99.90
59098;DHT22;44883;52.760;6.610;2022-09-17T02:44:26;10.30;99.90
59098;DHT22;44883;52.760;6.610;2022-09-17T02:50:10;10.30;99.90
59098;DHT22;44883;52.760;6.610;2022-09-17T02:53:13;10.30;99.90
59098;DHT22;44883;52.760;6.610;2022-09-17T02:56:05;10.30;99.90
59098;DHT22;44883;52.760;6.610;2022-09-17T02:58:43;10.20;99.90
59098;DHT22;44883;52.760;6.610;2022-09-17T03:01:24;10.30;99.90
59098;DHT22;44883;52.760;6.610;2022-09-17T03:03:53;10.30;99.90
59098;DHT22;44883;52.760;6.610;2022-09-17T03:06:21;10.40;99.90
59098;DHT22;44883;52.760;6.610;2022-09-17T03:08:47;10.50;99.90
59098;DHT22;44883;52.760;6.610;2022-09-17T03:11:13;10.40;99.90
59098;DHT22;44883;52.760;6.610;2022-09-17T03:13:39;10.50;99.90
59098;DHT22;44883;52.760;6.610;2022-09-17T03:16:05;10.50;99.90
59098;DHT22;44883;52.760;6.610;2022-09-17T03:18:31;10.50;99.90
59098;DHT22;44883;52.760;6.610;2022-09-17T03:20:57;10.50;99.90
59098;DHT22;44883;52.760;6.610;2022-09-17T03:23:23;10.50;99.90
59098;DHT22;44883;52.760;6.610;2022-09-17T03:25:48;10.40;99.90
59098;DHT22;44883;52.760;6.610;2022-09-17T03:28:15;10.40;99.90
59098;DHT22;44883;52.760;6.610;2022-09-17T03:30:42;10.40;99.90
59098;DHT22;44883;52.760;6.610;2022-09-17T03:33:09;10.30;99.90
59098;DHT22;44883;52.760;6.610;2022-09-17T03:35:34;10.30;99.90
59098;DHT22;44883;52.760;6.610;2022-09-17T03:38:00;10.20;99.90
59098;DHT22;44883;52.760;6.610;2022-09-17T03:40:26;10.20;99.90
59098;DHT22;44883;52.760;6.610;2022-09-17T03:42:51;10.10;99.90
59098;DHT22;44883;52.760;6.610;2022-09-17T03:45:17;10.10;99.90
59098;DHT22;44883;52.760;6.610;2022-09-17T03:47:43;10.10;99.90
59098;DHT22;44883;52.760;6.610;2022-09-17T03:50:08;10.00;99.90
59098;DHT22;44883;52.760;6.610;2022-09-17T03:52:34;10.00;99.90
59098;DHT22;44883;52.760;6.610;2022-09-17T03:55:01;9.90;99.90
59098;DHT22;44883;52.760;6.610;2022-09-17T03:57:26;10.00;99.90
59098;DHT22;44883;52.760;6.610;2022-09-17T03:59:52;9.90;99.90
59098;DHT22;44883;52.760;6.610;2022-09-17T04:02:17;9.80;99.90
59098;DHT22;44883;52.760;6.610;2022-09-17T04:04:43;9.80;99.90
59098;DHT22;44883;52.760;6.610;2022-09-17T04:07:08;9.80;99.90
59098;DHT22;44883;52.760;6.610;2022-09-17T04:09:34;9.80;99.90
59098;DHT22;44883;52.760;6.610;2022-09-17T04:12:00;9.80;99.90
59098;DHT22;44883;52.760;6.610;2022-09-17T04:14:25;9.80;99.90
59098;DHT22;44883;52.760;6.610;2022-09-17T04:16:51;9.80;99.90
59098;DHT22;44883;52.760;6.610;2022-09-17T04:19:16;9.80;99.90
59098;DHT22;44883;52.760;6.610;2022-09-17T04:21:42;9.80;99.90
59098;DHT22;44883;52.760;6.610;2022-09-17T04:24:08;9.80;99.90
59098;DHT22;44883;52.760;6.610;2022-09-17T04:26:33;9.80;99.90
59098;DHT22;44883;52.760;6.610;2022-09-17T04:28:59;9.80;99.90
59098;DHT22;44883;52.760;6.610;2022-09-17T04:31:25;9.80;99.90
59098;DHT22;44883;52.760;6.610;2022-09-17T04:33:52;9.80;99.90
59098;DHT22;44883;52.760;6.610;2022-09-17T04:36:18;9.80;99.90
59098;DHT22;44883;52.760;6.610;2022-09-17T04:38:46;9.80;99.90
59098;DHT22;44883;52.760;6.610;2022-09-17T04:41:12;9.80;99.90
59098;DHT22;44883;52.760;6.610;2022-09-17T04:43:37;9.80;99.90
59098;DHT22;44883;52.760;6.610;2022-09-17T04:46:03;9.80;99.90
59098;DHT22;44883;52.760;6.610;2022-09-17T04:48:29;9.80;99.90
59098;DHT22;44883;52.760;6.610;2022-09-17T04:50:54;9.80;99.90
59098;DHT22;44883;52.760;6.610;2022-09-17T04:53:20;9.80;99.90
59098;DHT22;44883;52.760;6.610;2022-09-17T04:55:45;9.90;99.90
59098;DHT22;44883;52.760;6.610;2022-09-17T04:58:11;9.90;99.90
59098;DHT22;44883;52.760;6.610;2022-09-17T05:00:37;9.90;99.90
59098;DHT22;44883;52.760;6.610;2022-09-17T05:03:02;10.00;99.90
59098;DHT22;44883;52.760;6.610;2022-09-17T05:05:28;10.00;99.90
59098;DHT22;44883;52.760;6.610;2022-09-17T05:07:53;10.00;99.90
59098;DHT22;44883;52.760;6.610;2022-09-17T05:10:20;10.00;99.90
59098;DHT22;44883;52.760;6.610;2022-09-17T05:12:51;10.00;99.90
59098;DHT22;44883;52.760;6.610;2022-09-17T05:15:17;10.10;99.90
59098;DHT22;44883;52.760;6.610;2022-09-17T05:17:43;10.10;99.90
59098;DHT22;44883;52.760;6.610;2022-09-17T05:20:09;10.10;99.90
59098;DHT22;44883;52.760;6.610;2022-09-17T05:22:42;10.20;99.90
59098;DHT22;44883;52.760;6.610;2022-09-17T05:25:08;10.20;99.90
59098;DHT22;44883;52.760;6.610;2022-09-17T05:27:34;10.20;99.90
59098;DHT22;44883;52.760;6.610;2022-09-17T05:30:00;10.40;99.90
59098;DHT22;44883;52.760;6.610;2022-09-17T05:32:25;10.50;99.90
59098;DHT22;44883;52.760;6.610;2022-09-17T05:34:51;10.40;99.90
59098;DHT22;44883;52.760;6.610;2022-09-17T05:37:16;10.40;99.90
59098;DHT22;44883;52.760;6.610;2022-09-17T05:39:42;10.40;99.90
59098;DHT22;44883;52.760;6.610;2022-09-17T05:42:07;10.50;99.90
59098;DHT22;44883;52.760;6.610;2022-09-17T05:44:33;10.70;99.90
59098;DHT22;44883;52.760;6.610;2022-09-17T05:46:58;10.80;99.90
59098;DHT22;44883;52.760;6.610;2022-09-17T05:49:24;11.10;99.90
59098;DHT22;44883;52.760;6.610;2022-09-17T05:51:50;11.30;99.90
59098;DHT22;44883;52.760;6.610;2022-09-17T05:54:16;11.50;99.90
59098;DHT22;44883;52.760;6.610;2022-09-17T05:56:41;11.90;99.90
59098;DHT22;44883;52.760;6.610;2022-09-17T05:59:07;12.50;99.90
59098;DHT22;44883;52.760;6.610;2022-09-17T06:01:33;13.00;99.90
59098;DHT22;44883;52.760;6.610;2022-09-17T06:03:58;13.50;99.80
59098;DHT22;44883;52.760;6.610;2022-09-17T06:06:27;13.90;99.60
59098;DHT22;44883;52.760;6.610;2022-09-17T06:08:54;14.20;97.40
59098;DHT22;44883;52.760;6.610;2022-09-17T06:11:19;14.40;96.00
59098;DHT22;44883;52.760;6.610;2022-09-17T06:13:45;14.20;95.40
59098;DHT22;44883;52.760;6.610;2022-09-17T06:16:10;14.40;95.30
59098;DHT22;44883;52.760;6.610;2022-09-17T06:18:36;15.30;93.80
59098;DHT22;44883;52.760;6.610;2022-09-17T06:21:03;16.20;91.40
59098;DHT22;44883;52.760;6.610;2022-09-17T06:23:33;17.00;86.70
59098;DHT22;44883;52.760;6.610;2022-09-17T06:26:01;16.70;84.70
59098;DHT22;44883;52.760;6.610;2022-09-17T06:28:27;16.00;87.40
59098;DHT22;44883;52.760;6.610;2022-09-17T06:30:53;15.10;91.10
59098;DHT22;44883;52.760;6.610;2022-09-17T06:33:21;14.50;92.90
59098;DHT22;44883;52.760;6.610;2022-09-17T06:35:48;13.90;94.00
59098;DHT22;44883;52.760;6.610;2022-09-17T06:38:14;13.50;95.10
59098;DHT22;44883;52.760;6.610;2022-09-17T06:40:39;13.70;96.60
59098;DHT22;44883;52.760;6.610;2022-09-17T06:43:05;14.90;95.50
59098;DHT22;44883;52.760;6.610;2022-09-17T06:45:31;16.30;94.00
59098;DHT22;44883;52.760;6.610;2022-09-17T06:47:57;17.90;87.70
59098;DHT22;44883;52.760;6.610;2022-09-17T06:50:22;19.20;80.20
59098;DHT22;44883;52.760;6.610;2022-09-17T06:52:50;20.20;69.70
59098;DHT22;44883;52.760;6.610;2022-09-17T06:55:16;21.00;61.50
59098;DHT22;44883;52.760;6.610;2022-09-17T06:57:42;21.10;59.10
59098;DHT22;44883;52.760;6.610;2022-09-17T07:00:08;20.50;57.40
59098;DHT22;44883;52.760;6.610;2022-09-17T07:02:34;19.30;59.20
59098;DHT22;44883;52.760;6.610;2022-09-17T07:05:00;18.10;67.70
59098;DHT22;44883;52.760;6.610;2022-09-17T07:07:26;17.10;78.00
59098;DHT22;44883;52.760;6.610;2022-09-17T07:09:51;16.30;84.30
59098;DHT22;44883;52.760;6.610;2022-09-17T07:12:20;15.60;90.20
59098;DHT22;44883;52.760;6.610;2022-09-17T07:14:46;15.10;91.40
59098;DHT22;44883;52.760;6.610;2022-09-17T07:17:14;15.50;93.10
59098;DHT22;44883;52.760;6.610;2022-09-17T07:19:40;17.00;90.80
59098;DHT22;44883;52.760;6.610;2022-09-17T07:22:06;18.70;83.30
59098;DHT22;44883;52.760;6.610;2022-09-17T07:24:32;20.30;71.90
59098;DHT22;44883;52.760;6.610;2022-09-17T07:26:57;21.20;61.90
59098;DHT22;44883;52.760;6.610;2022-09-17T07:29:23;21.70;58.20
59098;DHT22;44883;52.760;6.610;2022-09-17T07:31:54;22.40;55.60
59098;DHT22;44883;52.760;6.610;2022-09-17T07:34:20;23.20;53.70
59098;DHT22;44883;52.760;6.610;2022-09-17T07:36:46;24.10;51.50
59098;DHT22;44883;52.760;6.610;2022-09-17T07:39:11;24.30;49.80
59098;DHT22;44883;52.760;6.610;2022-09-17T07:41:38;23.50;49.80
59098;DHT22;44883;52.760;6.610;2022-09-17T07:44:04;23.30;50.20
59098;DHT22;44883;52.760;6.610;2022-09-17T07:46:34;24.00;49.40
59098;DHT22;44883;52.760;6.610;2022-09-17T07:49:00;24.60;48.00
59098;DHT22;44883;52.760;6.610;2022-09-17T07:51:26;24.40;47.60
59098;DHT22;44883;52.760;6.610;2022-09-17T07:53:58;23.80;47.70
59098;DHT22;44883;52.760;6.610;2022-09-17T07:56:25;23.90;48.30
59098;DHT22;44883;52.760;6.610;2022-09-17T07:58:51;23.70;48.40
59098;DHT22;44883;52.760;6.610;2022-09-17T08:01:17;22.80;48.80
59098;DHT22;44883;52.760;6.610;2022-09-17T08:03:52;21.70;50.10
59098;DHT22;44883;52.760;6.610;2022-09-17T08:06:23;22.10;51.10
59098;DHT22;44883;52.760;6.610;2022-09-17T08:08:50;23.10;50.00
59098;DHT22;44883;52.760;6.610;2022-09-17T08:11:21;24.20;48.20
59098;DHT22;44883;52.760;6.610;2022-09-17T08:13:48;25.20;46.20
59098;DHT22;44883;52.760;6.610;2022-09-17T08:16:14;25.90;45.20
59098;DHT22;44883;52.760;6.610;2022-09-17T08:18:44;26.60;44.00
59098;DHT22;44883;52.760;6.610;2022-09-17T08:21:12;25.40;42.90
59098;DHT22;44883;52.760;6.610;2022-09-17T08:23:43;23.50;44.50
59098;DHT22;44883;52.760;6.610;2022-09-17T08:26:16;21.60;47.50
59098;DHT22;44883;52.760;6.610;2022-09-17T08:28:46;20.00;51.00
59098;DHT22;44883;52.760;6.610;2022-09-17T08:31:13;18.60;54.70
59098;DHT22;44883;52.760;6.610;2022-09-17T08:33:40;18.00;61.10
59098;DHT22;44883;52.760;6.610;2022-09-17T08:36:08;17.60;67.90
59098;DHT22;44883;52.760;6.610;2022-09-17T08:38:35;17.30;72.80
59098;DHT22;44883;52.760;6.610;2022-09-17T08:49:35;20.80;57.10
59098;DHT22;44883;52.760;6.610;2022-09-17T08:55:29;21.50;55.40
59098;DHT22;44883;52.760;6.610;2022-09-17T08:58:22;21.60;53.30
59098;DHT22;44883;52.760;6.610;2022-09-17T09:01:06;21.90;52.40
59098;DHT22;44883;52.760;6.610;2022-09-17T09:06:09;20.40;54.30
59098;DHT22;44883;52.760;6.610;2022-09-17T09:08:55;20.50;54.00
59098;DHT22;44883;52.760;6.610;2022-09-17T09:11:26;19.80;55.10
59098;DHT22;44883;52.760;6.610;2022-09-17T09:16:27;18.20;74.20
59098;DHT22;44883;52.760;6.610;2022-09-17T09:18:55;17.70;84.60
59098;DHT22;44883;52.760;6.610;2022-09-17T09:21:28;17.50;81.80
59098;DHT22;44883;52.760;6.610;2022-09-17T09:29:44;18.40;83.40
59098;DHT22;44883;52.760;6.610;2022-09-17T09:35:19;20.00;72.60
59098;DHT22;44883;52.760;6.610;2022-09-17T09:40:33;19.30;73.90
59098;DHT22;44883;52.760;6.610;2022-09-17T09:43:07;19.10;75.10
59098;DHT22;44883;52.760;6.610;2022-09-17T09:51:38;21.10;66.00
59098;DHT22;44883;52.760;6.610;2022-09-17T09:54:15;21.60;58.70
59098;DHT22;44883;52.760;6.610;2022-09-17T09:57:02;20.70;61.00
59098;DHT22;44883;52.760;6.610;2022-09-17T09:59:30;19.70;63.70
59098;DHT22;44883;52.760;6.610;2022-09-17T10:01:56;19.40;70.90
59098;DHT22;44883;52.760;6.610;2022-09-17T10:04:24;19.20;69.70
59098;DHT22;44883;52.760;6.610;2022-09-17T10:06:52;19.10;70.70
59098;DHT22;44883;52.760;6.610;2022-09-17T10:09:20;19.80;70.70
59098;DHT22;44883;52.760;6.610;2022-09-17T10:14:38;22.10;57.20
59098;DHT22;44883;52.760;6.610;2022-09-17T10:19:44;20.70;57.20
59098;DHT22;44883;52.760;6.610;2022-09-17T10:22:23;19.70;62.30
59098;DHT22;44883;52.760;6.610;2022-09-17T10:24:52;18.80;68.90
59098;DHT22;44883;52.760;6.610;2022-09-17T10:27:18;18.20;77.20
59098;DHT22;44883;52.760;6.610;2022-09-17T10:29:47;18.00;80.60
59098;DHT22;44883;52.760;6.610;2022-09-17T10:32:18;18.00;81.90
59098;DHT22;44883;52.760;6.610;2022-09-17T10:35:00;19.10;78.20
59098;DHT22;44883;52.760;6.610;2022-09-17T10:37:42;20.40;69.50
59098;DHT22;44883;52.760;6.610;2022-09-17T10:42:50;20.30;63.10
59098;DHT22;44883;52.760;6.610;2022-09-17T10:45:38;19.80;65.20
59098;DHT22;44883;52.760;6.610;2022-09-17T10:48:04;19.30;67.40
59098;DHT22;44883;52.760;6.610;2022-09-17T10:50:31;18.90;69.80
59098;DHT22;44883;52.760;6.610;2022-09-17T10:53:04;18.60;72.50
59098;DHT22;44883;52.760;6.610;2022-09-17T10:55:40;18.30;74.10
59098;DHT22;44883;52.760;6.610;2022-09-17T11:04:06;17.60;82.60
59098;DHT22;44883;52.760;6.610;2022-09-17T11:17:50;17.50;81.40
59098;DHT22;44883;52.760;6.610;2022-09-17T11:23:41;17.00;86.40
59098;DHT22;44883;52.760;6.610;2022-09-17T11:26:28;16.90;87.80
59098;DHT22;44883;52.760;6.610;2022-09-17T11:31:33;17.20;87.00
59098;DHT22;44883;52.760;6.610;2022-09-17T11:39:13;16.70;90.00
59098;DHT22;44883;52.760;6.610;2022-09-17T11:41:43;16.20;90.20
59098;DHT22;44883;52.760;6.610;2022-09-17T11:44:19;15.60;90.80
59098;DHT22;44883;52.760;6.610;2022-09-17T11:49:29;15.00;93.40
59098;DHT22;44883;52.760;6.610;2022-09-17T11:52:17;14.80;94.40
59098;DHT22;44883;52.760;6.610;2022-09-17T11:54:57;14.60;95.10
59098;DHT22;44883;52.760;6.610;2022-09-17T11:57:34;14.50;95.00
59098;DHT22;44883;52.760;6.610;2022-09-17T12:00:13;14.30;95.00
59098;DHT22;44883;52.760;6.610;2022-09-17T12:05:38;14.40;94.50
59098;DHT22;44883;52.760;6.610;2022-09-17T12:13:38;14.80;95.30
59098;DHT22;44883;52.760;6.610;2022-09-17T12:16:16;14.90;94.60
59098;DHT22;44883;52.760;6.610;2022-09-17T12:18:58;14.90;94.60
59098;DHT22;44883;52.760;6.610;2022-09-17T12:21:39;14.90;95.00
59098;DHT22;44883;52.760;6.610;2022-09-17T12:38:47;15.10;97.00
59098;DHT22;44883;52.760;6.610;2022-09-17T12:44:02;15.00;98.10
59098;DHT22;44883;52.760;6.610;2022-09-17T12:47:03;15.20;97.80
59098;DHT22;44883;52.760;6.610;2022-09-17T12:50:02;15.30;97.00
59098;DHT22;44883;52.760;6.610;2022-09-17T12:53:03;15.30;97.00
59098;DHT22;44883;52.760;6.610;2022-09-17T12:56:04;15.30;97.30
59098;DHT22;44883;52.760;6.610;2022-09-17T12:58:37;15.30;97.00
59098;DHT22;44883;52.760;6.610;2022-09-17T13:03:45;15.30;97.50
59098;DHT22;44883;52.760;6.610;2022-09-17T13:06:27;15.40;98.30
59098;DHT22;44883;52.760;6.610;2022-09-17T13:17:52;15.50;96.10
59098;DHT22;44883;52.760;6.610;2022-09-17T13:20:30;15.20;96.60
59098;DHT22;44883;52.760;6.610;2022-09-17T13:22:58;15.20;96.80
59098;DHT22;44883;52.760;6.610;2022-09-17T13:25:24;15.10;96.90
59098;DHT22;44883;52.760;6.610;2022-09-17T13:28:03;15.00;96.30
59098;DHT22;44883;52.760;6.610;2022-09-17T13:30:55;14.90;96.60
59098;DHT22;44883;52.760;6.610;2022-09-17T13:33:56;15.00;97.40
59098;DHT22;44883;52.760;6.610;2022-09-17T13:42:13;15.70;95.10
59098;DHT22;44883;52.760;6.610;2022-09-17T13:44:45;15.80;93.80
59098;DHT22;44883;52.760;6.610;2022-09-17T13:47:25;15.90;93.80
59098;DHT22;44883;52.760;6.610;2022-09-17T13:49:57;16.20;94.10
59098;DHT22;44883;52.760;6.610;2022-09-17T13:52:32;16.30;92.70
59098;DHT22;44883;52.760;6.610;2022-09-17T13:55:00;16.30;92.50
59098;DHT22;44883;52.760;6.610;2022-09-17T13:57:26;16.50;92.90
59098;DHT22;44883;52.760;6.610;2022-09-17T13:59:54;16.60;91.80
59098;DHT22;44883;52.760;6.610;2022-09-17T14:02:32;16.50;91.70
59098;DHT22;44883;52.760;6.610;2022-09-17T14:05:22;16.50;91.30
59098;DHT22;44883;52.760;6.610;2022-09-17T14:07:49;16.50;88.10
59098;DHT22;44883;52.760;6.610;2022-09-17T14:12:49;16.50;86.90
59098;DHT22;44883;52.760;6.610;2022-09-17T14:15:36;16.50;84.80
59098;DHT22;44883;52.760;6.610;2022-09-17T14:21:19;16.70;82.50
59098;DHT22;44883;52.760;6.610;2022-09-17T14:23:54;16.50;84.80
59098;DHT22;44883;52.760;6.610;2022-09-17T14:26:33;16.30;83.90
59098;DHT22;44883;52.760;6.610;2022-09-17T14:29:35;15.90;91.10
59098;DHT22;44883;52.760;6.610;2022-09-17T14:32:07;15.80;92.80
59098;DHT22;44883;52.760;6.610;2022-09-17T14:34:35;15.80;92.80
59098;DHT22;44883;52.760;6.610;2022-09-17T14:37:01;15.90;92.80
59098;DHT22;44883;52.760;6.610;2022-09-17T14:39:34;15.90;92.70
59098;DHT22;44883;52.760;6.610;2022-09-17T14:42:04;15.80;92.30
59098;DHT22;44883;52.760;6.610;2022-09-17T14:44:30;15.80;91.90
59098;DHT22;44883;52.760;6.610;2022-09-17T14:47:06;15.60;92.10
59098;DHT22;44883;52.760;6.610;2022-09-17T14:49:36;15.40;92.60
59098;DHT22;44883;52.760;6.610;2022-09-17T14:55:14;14.80;94.00
59098;DHT22;44883;52.760;6.610;2022-09-17T14:57:41;14.60;95.40
59098;DHT22;44883;52.760;6.610;2022-09-17T15:00:34;14.50;95.60
59098;DHT22;44883;52.760;6.610;2022-09-17T15:03:00;14.50;95.30
59098;DHT22;44883;52.760;6.610;2022-09-17T15:05:36;14.60;95.50
59098;DHT22;44883;52.760;6.610;2022-09-17T15:10:46;14.50;95.00
59098;DHT22;44883;52.760;6.610;2022-09-17T15:13:16;14.30;95.00
59098;DHT22;44883;52.760;6.610;2022-09-17T15:16:29;14.30;95.50
59098;DHT22;44883;52.760;6.610;2022-09-17T15:18:57;14.30;95.70
59098;DHT22;44883;52.760;6.610;2022-09-17T15:27:00;14.10;97.00
59098;DHT22;44883;52.760;6.610;2022-09-17T15:29:29;14.10;97.40
59098;DHT22;44883;52.760;6.610;2022-09-17T15:31:56;14.10;97.70
59098;DHT22;44883;52.760;6.610;2022-09-17T15:34:21;14.10;97.80
59098;DHT22;44883;52.760;6.610;2022-09-17T15:37:24;14.10;97.80
59098;DHT22;44883;52.760;6.610;2022-09-17T15:39:51;14.00;97.70
59098;DHT22;44883;52.760;6.610;2022-09-17T15:42:26;14.00;97.30
59098;DHT22;44883;52.760;6.610;2022-09-17T15:44:52;14.00;97.10
59098;DHT22;44883;52.760;6.610;2022-09-17T15:52:48;14.10;96.80
59098;DHT22;44883;52.760;6.610;2022-09-17T15:57:59;14.00;96.50
59098;DHT22;44883;52.760;6.610;2022-09-17T16:00:25;14.10;96.60
59098;DHT22;44883;52.760;6.610;2022-09-17T16:02:51;14.10;96.20
59098;DHT22;44883;52.760;6.610;2022-09-17T16:07:46;14.10;95.60
59098;DHT22;44883;52.760;6.610;2022-09-17T16:10:13;14.10;95.50
59098;DHT22;44883;52.760;6.610;2022-09-17T16:12:38;14.00;95.40
59098;DHT22;44883;52.760;6.610;2022-09-17T16:15:05;13.90;95.30
59098;DHT22;44883;52.760;6.610;2022-09-17T16:22:38;13.60;95.30
59098;DHT22;44883;52.760;6.610;2022-09-17T16:25:04;13.50;95.60
59098;DHT22;44883;52.760;6.610;2022-09-17T16:27:34;13.50;95.90
59098;DHT22;44883;52.760;6.610;2022-09-17T16:30:05;13.50;95.90
59098;DHT22;44883;52.760;6.610;2022-09-17T16:32:33;13.40;96.20
59098;DHT22;44883;52.760;6.610;2022-09-17T16:34:59;13.40;96.40
59098;DHT22;44883;52.760;6.610;2022-09-17T16:37:25;13.30;97.00
59098;DHT22;44883;52.760;6.610;2022-09-17T16:39:50;13.30;97.10
59098;DHT22;44883;52.760;6.610;2022-09-17T16:42:17;13.30;97.20
59098;DHT22;44883;52.760;6.610;2022-09-17T16:44:43;13.40;97.30
59098;DHT22;44883;52.760;6.610;2022-09-17T16:47:08;13.40;97.30
59098;DHT22;44883;52.760;6.610;2022-09-17T16:49:34;13.30;97.20
59098;DHT22;44883;52.760;6.610;2022-09-17T16:52:00;13.30;97.80
59098;DHT22;44883;52.760;6.610;2022-09-17T16:54:26;13.30;97.80
59098;DHT22;44883;52.760;6.610;2022-09-17T16:56:51;13.30;97.70
59098;DHT22;44883;52.760;6.610;2022-09-17T16:59:17;13.30;97.80
59098;DHT22;44883;52.760;6.610;2022-09-17T17:01:42;13.30;97.70
59098;DHT22;44883;52.760;6.610;2022-09-17T17:04:08;13.30;97.60
59098;DHT22;44883;52.760;6.610;2022-09-17T17:06:34;13.40;97.90
59098;DHT22;44883;52.760;6.610;2022-09-17T17:08:59;13.40;98.00
59098;DHT22;44883;52.760;6.610;2022-09-17T17:11:26;13.40;97.80
59098;DHT22;44883;52.760;6.610;2022-09-17T17:13:53;13.30;97.90
59098;DHT22;44883;52.760;6.610;2022-09-17T17:16:20;13.10;97.50
59098;DHT22;44883;52.760;6.610;2022-09-17T17:18:46;13.10;98.00
59098;DHT22;44883;52.760;6.610;2022-09-17T17:21:13;13.00;97.50
59098;DHT22;44883;52.760;6.610;2022-09-17T17:23:39;12.90;98.10
59098;DHT22;44883;52.760;6.610;2022-09-17T17:26:05;12.80;97.90
59098;DHT22;44883;52.760;6.610;2022-09-17T17:28:34;12.70;97.90
59098;DHT22;44883;52.760;6.610;2022-09-17T17:31:01;12.60;98.10
59098;DHT22;44883;52.760;6.610;2022-09-17T17:33:27;12.50;98.40
59098;DHT22;44883;52.760;6.610;2022-09-17T17:35:53;12.50;98.90
59098;DHT22;44883;52.760;6.610;2022-09-17T17:38:19;12.40;98.80
59098;DHT22;44883;52.760;6.610;2022-09-17T17:40:44;12.40;98.80
59098;DHT22;44883;52.760;6.610;2022-09-17T17:43:11;12.40;99.10
59098;DHT22;44883;52.760;6.610;2022-09-17T17:45:38;12.30;99.00
59098;DHT22;44883;52.760;6.610;2022-09-17T17:48:03;12.30;99.10
59098;DHT22;44883;52.760;6.610;2022-09-17T17:50:31;12.30;99.20
59098;DHT22;44883;52.760;6.610;2022-09-17T17:52:56;12.30;98.90
59098;DHT22;44883;52.760;6.610;2022-09-17T17:55:23;12.20;99.40
59098;DHT22;44883;52.760;6.610;2022-09-17T17:57:56;12.20;99.60
59098;DHT22;44883;52.760;6.610;2022-09-17T18:00:22;12.20;99.10
59098;DHT22;44883;52.760;6.610;2022-09-17T18:02:49;12.30;99.70
59098;DHT22;44883;52.760;6.610;2022-09-17T18:05:15;12.30;99.80
59098;DHT22;44883;52.760;6.610;2022-09-17T18:07:41;12.30;99.80
59098;DHT22;44883;52.760;6.610;2022-09-17T18:10:07;12.30;99.20
59098;DHT22;44883;52.760;6.610;2022-09-17T18:12:32;12.30;99.30
59098;DHT22;44883;52.760;6.610;2022-09-17T18:14:58;12.30;99.30
59098;DHT22;44883;52.760;6.610;2022-09-17T18:17:23;12.30;99.60
59098;DHT22;44883;52.760;6.610;2022-09-17T18:19:49;12.20;99.10
59098;DHT22;44883;52.760;6.610;2022-09-17T18:22:16;12.30;99.40
59098;DHT22;44883;52.760;6.610;2022-09-17T18:24:42;12.20;99.30
59098;DHT22;44883;52.760;6.610;2022-09-17T18:27:08;12.20;99.30
59098;DHT22;44883;52.760;6.610;2022-09-17T18:29:34;12.10;98.90
59098;DHT22;44883;52.760;6.610;2022-09-17T18:31:59;12.00;99.20
59098;DHT22;44883;52.760;6.610;2022-09-17T18:34:25;12.00;99.30
59098;DHT22;44883;52.760;6.610;2022-09-17T18:36:51;12.00;99.50
59098;DHT22;44883;52.760;6.610;2022-09-17T18:39:17;12.00;99.40
59098;DHT22;44883;52.760;6.610;2022-09-17T18:41:42;12.10;99.90
59098;DHT22;44883;52.760;6.610;2022-09-17T18:44:09;12.10;99.40
59098;DHT22;44883;52.760;6.610;2022-09-17T18:46:35;12.00;99.70
59098;DHT22;44883;52.760;6.610;2022-09-17T18:49:02;12.00;99.60